createdAt,value
2023-01-21T00:01:15.915Z,4.53
2023-01-21T00:04:01.574Z,4.50
2023-01-21T00:06:47.082Z,4.46
2023-01-21T00:09:32.947Z,4.46
2023-01-21T00:12:19.376Z,4.47
2023-01-21T00:15:04.852Z,4.48
2023-01-21T00:17:55.295Z,4.49
2023-01-21T00:20:40.560Z,4.52
2023-01-21T00:23:26.608Z,4.52
2023-01-21T00:26:12.243Z,4.48
2023-01-21T00:28:57.728Z,4.50
2023-01-21T00:31:43.229Z,4.46
2023-01-21T00:34:28.869Z,4.44
2023-01-21T00:37:14.330Z,4.45
2023-01-21T00:40:00.346Z,4.44
2023-01-21T00:42:45.731Z,4.45
2023-01-21T00:45:31.621Z,4.44
2023-01-21T00:48:17.312Z,4.46
2023-01-21T00:51:03.352Z,4.48
2023-01-21T00:53:49.247Z,4.48
2023-01-21T00:56:34.566Z,4.49
2023-01-21T00:59:20.267Z,4.48
2023-01-21T01:02:08.143Z,4.49
2023-01-21T01:04:53.768Z,4.51
2023-01-21T01:07:41.263Z,4.53
2023-01-21T01:10:27.347Z,4.56
2023-01-21T01:13:13.051Z,4.59
2023-01-21T01:16:00.135Z,4.61
2023-01-21T01:18:46.064Z,4.59
2023-01-21T01:21:31.635Z,4.57
2023-01-21T01:24:18.496Z,4.53
2023-01-21T01:27:04.628Z,4.49
2023-01-21T01:29:50.402Z,4.48
2023-01-21T01:32:35.944Z,4.48
2023-01-21T01:35:21.573Z,4.49
2023-01-21T01:38:09.480Z,4.47
2023-01-21T01:40:55.255Z,4.45
2023-01-21T01:44:01.013Z,4.42
2023-01-21T01:46:48.452Z,4.38
2023-01-21T01:49:34.012Z,4.36
2023-01-21T01:52:19.704Z,4.35
2023-01-21T01:55:06.015Z,4.37
2023-01-21T01:57:52.570Z,4.37
2023-01-21T02:00:38.307Z,4.39
2023-01-21T02:03:42.396Z,4.42
2023-01-21T02:06:28.337Z,4.45
2023-01-21T02:09:13.733Z,4.46
2023-01-21T02:11:59.779Z,4.48
2023-01-21T02:14:45.079Z,4.50
2023-01-21T02:17:36.860Z,4.52
2023-01-21T02:20:32.670Z,4.56
2023-01-21T02:23:36.854Z,4.58
2023-01-21T02:26:41.106Z,4.59
2023-01-21T02:29:34.772Z,4.59
2023-01-21T02:32:38.561Z,4.60
2023-01-21T02:36:02.808Z,4.63
2023-01-21T02:39:07.118Z,4.65
2023-01-21T02:41:53.076Z,4.67
2023-01-21T02:44:39.892Z,4.68
2023-01-21T02:47:28.219Z,4.69
2023-01-21T02:50:23.785Z,4.69
2023-01-21T02:53:26.105Z,4.68
2023-01-21T02:56:13.190Z,4.67
2023-01-21T02:59:02.057Z,4.68
2023-01-21T03:01:53.990Z,4.70
2023-01-21T03:04:49.131Z,4.72
2023-01-21T03:07:35.152Z,4.73
2023-01-21T03:10:23.916Z,4.77
2023-01-21T03:13:38.578Z,4.80
2023-01-21T03:16:51.597Z,4.86
2023-01-21T03:19:37.132Z,4.89
2023-01-21T03:22:23.947Z,4.92
2023-01-21T03:25:09.806Z,4.92
2023-01-21T03:27:55.174Z,4.91
2023-01-21T03:30:41.459Z,4.88
2023-01-21T03:33:28.172Z,4.87
2023-01-21T03:36:16.155Z,4.87
2023-01-21T03:39:04.063Z,4.87
2023-01-21T03:41:49.692Z,4.89
2023-01-21T03:44:35.517Z,4.91
2023-01-21T03:47:28.833Z,4.95
2023-01-21T03:50:16.136Z,5.01
2023-01-21T03:53:01.950Z,5.07
2023-01-21T03:55:49.443Z,5.11
2023-01-21T03:58:36.064Z,5.18
2023-01-21T04:01:21.898Z,5.23
2023-01-21T04:04:09.029Z,5.25
2023-01-21T04:06:54.681Z,5.31
2023-01-21T04:09:40.497Z,5.32
2023-01-21T04:12:26.082Z,5.29
2023-01-21T04:15:11.918Z,5.30
2023-01-21T04:17:57.569Z,5.29
2023-01-21T04:20:43.326Z,5.31
2023-01-21T04:23:28.777Z,5.32
2023-01-21T04:26:14.633Z,5.32
2023-01-21T04:29:00.129Z,5.34
2023-01-21T04:31:46.188Z,5.35
2023-01-21T04:34:31.838Z,5.34
2023-01-21T04:37:17.682Z,5.36
2023-01-21T04:40:03.291Z,5.37
2023-01-21T04:42:49.747Z,5.39
2023-01-21T04:45:35.395Z,5.40
2023-01-21T04:48:20.907Z,5.43
2023-01-21T04:51:08.089Z,5.45
2023-01-21T04:53:53.693Z,5.44
2023-01-21T04:56:39.218Z,5.43
2023-01-21T04:59:24.668Z,5.39
2023-01-21T05:02:10.471Z,5.38
2023-01-21T05:04:56.009Z,5.34
2023-01-21T05:07:41.852Z,5.32
2023-01-21T05:10:27.652Z,5.31
2023-01-21T05:13:18.526Z,5.29
2023-01-21T05:16:05.209Z,5.27
2023-01-21T05:18:50.822Z,5.29
2023-01-21T05:21:36.520Z,5.30
2023-01-21T05:24:22.460Z,5.29
2023-01-21T05:27:08.277Z,5.30
2023-01-21T05:29:54.114Z,5.30
2023-01-21T05:32:40.943Z,5.31
2023-01-21T05:35:26.539Z,5.30
2023-01-21T05:38:12.016Z,5.29
2023-01-21T05:40:59.463Z,5.27
2023-01-21T05:43:45.049Z,5.27
2023-01-21T05:46:31.511Z,5.25
2023-01-21T05:49:17.188Z,5.24
2023-01-21T05:52:03.733Z,5.22
2023-01-21T05:55:01.044Z,5.21
2023-01-21T05:57:48.472Z,5.21
2023-01-21T06:00:34.549Z,5.21
2023-01-21T06:03:19.950Z,5.21
2023-01-21T06:06:05.639Z,5.22
2023-01-21T06:08:50.974Z,5.23
2023-01-21T06:11:36.701Z,5.25
2023-01-21T06:14:22.213Z,5.24
2023-01-21T06:17:08.675Z,5.26
2023-01-21T06:19:54.425Z,5.27
2023-01-21T06:22:40.029Z,5.29
2023-01-21T06:25:25.891Z,5.32
2023-01-21T06:28:11.753Z,5.34
2023-01-21T06:30:57.198Z,5.35
2023-01-21T06:33:43.081Z,5.37
2023-01-21T06:36:28.743Z,5.40
2023-01-21T06:39:14.574Z,5.42
2023-01-21T06:42:00.432Z,5.45
2023-01-21T06:44:46.364Z,5.48
2023-01-21T06:47:32.528Z,5.52
2023-01-21T06:50:18.768Z,5.55
2023-01-21T06:53:04.763Z,5.58
2023-01-21T06:55:50.492Z,5.64
2023-01-21T06:58:36.158Z,5.66
2023-01-21T07:01:21.672Z,5.68
2023-01-21T07:04:07.317Z,5.69
2023-01-21T07:06:53.967Z,5.70
2023-01-21T07:09:39.441Z,5.68
2023-01-21T07:12:25.966Z,5.68
2023-01-21T07:15:12.709Z,5.71
2023-01-21T07:17:58.121Z,5.70
2023-01-21T07:20:43.626Z,5.70
2023-01-21T07:23:30.341Z,5.70
2023-01-21T07:26:16.279Z,5.72
2023-01-21T07:29:02.419Z,5.75
2023-01-21T07:31:48.003Z,5.77
2023-01-21T07:34:33.892Z,5.78
2023-01-21T07:37:19.633Z,5.80
2023-01-21T07:40:05.331Z,5.82
2023-01-21T07:42:51.518Z,5.79
2023-01-21T07:45:39.266Z,5.81
2023-01-21T07:48:25.023Z,5.79
2023-01-21T07:51:10.844Z,5.79
2023-01-21T07:53:56.939Z,5.78
2023-01-21T07:56:42.782Z,5.78
2023-01-21T07:59:28.314Z,5.78
2023-01-21T08:02:13.891Z,5.77
2023-01-21T08:04:59.535Z,5.76
2023-01-21T08:07:45.107Z,5.76
2023-01-21T08:10:31.134Z,5.73
2023-01-21T08:13:16.489Z,5.72
2023-01-21T08:16:02.367Z,5.69
2023-01-21T08:18:47.971Z,5.65
2023-01-21T08:21:33.427Z,5.66
2023-01-21T08:24:19.219Z,5.63
2023-01-21T08:27:06.120Z,5.65
2023-01-21T08:29:51.851Z,5.67
2023-01-21T08:32:38.837Z,5.69
2023-01-21T08:35:24.217Z,5.72
2023-01-21T08:38:11.141Z,5.75
2023-01-21T08:40:57.931Z,5.79
2023-01-21T08:43:43.656Z,5.78
2023-01-21T08:46:29.094Z,5.80
2023-01-21T08:49:14.890Z,5.80
2023-01-21T08:52:00.967Z,5.82
2023-01-21T08:54:47.064Z,5.82
2023-01-21T08:57:33.791Z,5.82
2023-01-21T09:00:20.595Z,5.80
2023-01-21T09:03:05.910Z,5.79
2023-01-21T09:05:51.846Z,5.79
2023-01-21T09:08:37.363Z,5.80
2023-01-21T09:11:23.052Z,5.80
2023-01-21T09:14:08.765Z,5.79
2023-01-21T09:16:55.997Z,5.79
2023-01-21T09:19:41.743Z,5.77
2023-01-21T09:22:27.344Z,5.73
2023-01-21T09:25:13.611Z,5.71
2023-01-21T09:28:00.455Z,5.72
2023-01-21T09:30:48.336Z,5.76
2023-01-21T09:33:34.690Z,5.79
2023-01-21T09:36:21.256Z,5.82
2023-01-21T09:39:07.346Z,5.88
2023-01-21T09:41:53.770Z,5.98
2023-01-21T09:44:44.005Z,6.12
2023-01-21T09:47:31.171Z,6.29
2023-01-21T09:50:18.960Z,6.46
2023-01-21T09:53:07.203Z,6.67
2023-01-21T09:55:53.138Z,6.86
2023-01-21T09:58:40.601Z,7.02
2023-01-21T10:01:32.154Z,7.13
2023-01-21T10:04:25.803Z,7.17
2023-01-21T10:07:14.360Z,7.19
2023-01-21T10:10:19.031Z,7.20
2023-01-21T10:13:04.958Z,7.23
2023-01-21T10:15:53.476Z,7.22
2023-01-21T10:18:39.291Z,7.18
2023-01-21T10:21:38.545Z,7.16
2023-01-21T10:24:25.014Z,7.15
2023-01-21T10:27:11.690Z,7.10
2023-01-21T10:29:58.120Z,7.11
2023-01-21T10:32:43.682Z,7.11
2023-01-21T10:35:31.862Z,7.11
2023-01-21T10:38:23.477Z,7.15
2023-01-21T10:41:28.314Z,7.20
2023-01-21T10:44:32.961Z,7.21
2023-01-21T10:47:28.235Z,7.20
2023-01-21T10:50:24.211Z,7.18
2023-01-21T10:53:25.657Z,7.15
2023-01-21T10:56:11.522Z,7.12
2023-01-21T10:59:05.289Z,7.14
2023-01-21T11:01:51.678Z,7.12
2023-01-21T11:04:37.671Z,7.14
2023-01-21T11:07:23.057Z,7.15
2023-01-21T11:10:09.426Z,7.16
2023-01-21T11:12:55.107Z,7.23
2023-01-21T11:15:44.964Z,7.27
2023-01-21T11:18:32.439Z,7.29
2023-01-21T11:21:19.310Z,7.27
2023-01-21T11:24:13.728Z,7.30
2023-01-21T11:27:00.385Z,7.30
2023-01-21T11:29:47.611Z,7.28
2023-01-21T11:32:33.276Z,7.27
2023-01-21T11:35:22.364Z,7.26
2023-01-21T11:38:13.310Z,7.27
2023-01-21T11:41:05.025Z,7.27
2023-01-21T11:43:51.813Z,7.24
2023-01-21T11:46:38.123Z,7.23
2023-01-21T11:49:24.861Z,7.21
2023-01-21T11:52:15.926Z,7.20
2023-01-21T11:55:02.560Z,7.19
2023-01-21T11:57:51.923Z,7.24
2023-01-21T12:00:39.431Z,7.27
2023-01-21T12:03:26.265Z,7.33
2023-01-21T12:06:17.897Z,7.41
2023-01-21T12:09:04.840Z,7.48
2023-01-21T12:12:02.248Z,7.56
2023-01-21T12:14:51.164Z,7.66
2023-01-21T12:17:41.556Z,7.74
2023-01-21T12:20:33.387Z,7.81
2023-01-21T12:23:37.576Z,7.82
2023-01-21T12:26:28.210Z,7.85
2023-01-21T12:29:36.361Z,7.86
2023-01-21T12:32:28.487Z,7.90
2023-01-21T12:35:34.194Z,7.94
2023-01-21T12:38:21.148Z,7.97
2023-01-21T12:41:17.324Z,8.01
2023-01-21T12:44:24.162Z,8.02
2023-01-21T12:47:11.803Z,8.03
2023-01-21T12:50:05.896Z,8.02
2023-01-21T12:52:51.327Z,8.02
2023-01-21T12:55:39.114Z,8.01
2023-01-21T12:58:25.605Z,8.02
2023-01-21T13:01:13.448Z,8.04
2023-01-21T13:04:01.858Z,8.07
2023-01-21T13:06:54.267Z,8.10
2023-01-21T13:09:47.371Z,8.14
2023-01-21T13:12:33.983Z,8.18
2023-01-21T13:15:23.213Z,8.23
2023-01-21T13:18:13.527Z,8.25
2023-01-21T13:21:01.126Z,8.22
2023-01-21T13:23:48.992Z,8.20
2023-01-21T13:26:38.451Z,8.16
2023-01-21T13:29:32.239Z,8.14
2023-01-21T13:32:23.986Z,8.13
2023-01-21T13:35:09.735Z,8.10
2023-01-21T13:37:55.283Z,8.07
2023-01-21T13:40:46.947Z,8.04
2023-01-21T13:43:39.806Z,8.00
2023-01-21T13:46:31.634Z,7.97
2023-01-21T13:49:40.633Z,7.96
2023-01-21T13:52:39.392Z,7.94
2023-01-21T13:55:43.696Z,7.93
2023-01-21T13:58:37.764Z,7.95
2023-01-21T14:01:28.160Z,7.94
2023-01-21T14:04:32.351Z,7.94
2023-01-21T14:07:21.108Z,7.94
2023-01-21T14:10:09.135Z,7.91
2023-01-21T14:12:57.821Z,7.87
2023-01-21T14:16:02.813Z,7.88
2023-01-21T14:19:07.333Z,7.86
2023-01-21T14:21:53.120Z,7.88
2023-01-21T14:24:39.789Z,7.86
2023-01-21T14:27:37.964Z,7.88
2023-01-21T14:30:28.263Z,7.91
2023-01-21T14:33:24.101Z,7.94
2023-01-21T14:36:12.827Z,7.92
2023-01-21T14:38:58.439Z,7.93
2023-01-21T14:42:06.616Z,7.92
2023-01-21T14:44:52.120Z,7.93
2023-01-21T14:47:38.484Z,7.92
2023-01-21T14:51:00.744Z,7.91
2023-01-21T14:53:47.520Z,7.90
2023-01-21T14:56:33.493Z,7.90
2023-01-21T14:59:25.121Z,7.89
2023-01-21T15:02:42.141Z,7.88
2023-01-21T15:05:29.079Z,7.88
2023-01-21T15:08:25.118Z,7.86
2023-01-21T15:11:21.872Z,7.86
2023-01-21T15:14:13.010Z,7.83
2023-01-21T15:16:59.815Z,7.82
2023-01-21T15:19:45.438Z,7.82
2023-01-21T15:22:41.050Z,7.80
2023-01-21T15:25:31.829Z,7.79
2023-01-21T15:28:40.320Z,7.80
2023-01-21T15:31:26.350Z,7.80
2023-01-21T15:34:14.527Z,7.78
2023-01-21T15:37:00.306Z,7.77
2023-01-21T15:39:46.716Z,7.73
2023-01-21T15:42:35.345Z,7.70
2023-01-21T15:45:23.801Z,7.68
2023-01-21T15:48:09.476Z,7.64
2023-01-21T15:50:54.949Z,7.63
2023-01-21T15:53:49.978Z,7.58
2023-01-21T15:56:57.387Z,7.55
2023-01-21T16:00:04.121Z,7.49
2023-01-21T16:03:21.422Z,7.49
2023-01-21T16:06:06.863Z,7.45
2023-01-21T16:08:52.526Z,7.41
2023-01-21T16:11:57.807Z,7.39
2023-01-21T16:14:44.214Z,7.30
2023-01-21T16:17:43.268Z,7.28
2023-01-21T16:20:29.726Z,7.24
2023-01-21T16:23:17.079Z,7.18
2023-01-21T16:26:02.986Z,7.15
2023-01-21T16:28:51.426Z,7.13
2023-01-21T16:31:50.470Z,7.07
2023-01-21T16:34:42.555Z,7.01
2023-01-21T16:37:29.019Z,6.99
2023-01-21T16:40:20.863Z,6.97
2023-01-21T16:43:11.651Z,6.95
2023-01-21T16:45:58.011Z,6.95
2023-01-21T16:48:43.918Z,6.95
2023-01-21T16:51:32.351Z,6.94
2023-01-21T16:54:17.733Z,6.93
2023-01-21T16:57:15.456Z,6.92
2023-01-21T17:00:02.707Z,6.94
2023-01-21T17:02:48.808Z,6.93
2023-01-21T17:05:34.813Z,6.92
2023-01-21T17:08:20.618Z,6.90
2023-01-21T17:11:09.981Z,6.91
2023-01-21T17:13:55.570Z,6.91
2023-01-21T17:16:41.066Z,6.91
2023-01-21T17:19:32.175Z,6.88
2023-01-21T17:22:19.623Z,6.87
2023-01-21T17:25:26.461Z,6.86
2023-01-21T17:28:24.383Z,6.85
2023-01-21T17:31:17.752Z,6.85
2023-01-21T17:34:15.873Z,6.83
2023-01-21T17:37:01.902Z,6.82
2023-01-21T17:39:50.632Z,6.80
2023-01-21T17:42:39.009Z,6.79
2023-01-21T17:45:45.121Z,6.81
2023-01-21T17:48:33.517Z,6.83
2023-01-21T17:51:24.032Z,6.86
2023-01-21T17:54:20.943Z,6.88
2023-01-21T17:57:06.714Z,6.94
2023-01-21T17:59:53.833Z,6.98
2023-01-21T18:02:39.468Z,7.01
2023-01-21T18:05:32.229Z,7.05
2023-01-21T18:08:17.793Z,7.08
2023-01-21T18:11:03.713Z,7.06
2023-01-21T18:13:50.210Z,7.04
2023-01-21T18:16:39.986Z,7.05
2023-01-21T18:19:29.246Z,7.03
2023-01-21T18:22:25.327Z,7.02
2023-01-21T18:25:11.962Z,7.00
2023-01-21T18:27:57.976Z,7.00
2023-01-21T18:30:43.902Z,7.00
2023-01-21T18:33:31.658Z,7.01
2023-01-21T18:36:17.176Z,7.02
2023-01-21T18:39:02.798Z,6.95
2023-01-21T18:41:48.358Z,6.99
2023-01-21T18:44:33.962Z,6.97
2023-01-21T18:47:19.668Z,6.96
2023-01-21T18:50:05.919Z,6.96
2023-01-21T18:52:51.881Z,6.95
2023-01-21T18:55:37.545Z,6.96
2023-01-21T18:58:23.057Z,6.93
2023-01-21T19:01:21.947Z,6.92
2023-01-21T19:04:09.963Z,6.91
2023-01-21T19:06:55.636Z,6.91
2023-01-21T19:09:46.201Z,6.92
2023-01-21T19:12:31.826Z,6.96
2023-01-21T19:15:19.709Z,6.99
2023-01-21T19:18:09.910Z,7.02
2023-01-21T19:20:56.723Z,7.03
2023-01-21T19:23:42.281Z,7.05
2023-01-21T19:26:27.826Z,7.08
2023-01-21T19:29:16.751Z,7.10
2023-01-21T19:32:02.588Z,7.12
2023-01-21T19:34:48.040Z,7.12
2023-01-21T19:37:33.896Z,7.14
2023-01-21T19:40:20.996Z,7.13
2023-01-21T19:43:06.757Z,7.08
2023-01-21T19:45:52.565Z,7.04
2023-01-21T19:48:38.403Z,7.00
2023-01-21T19:51:24.214Z,6.92
2023-01-21T19:54:09.993Z,6.88
2023-01-21T19:56:55.596Z,6.84
2023-01-21T19:59:42.132Z,6.82
2023-01-21T20:02:28.102Z,6.82
2023-01-21T20:05:16.302Z,6.84
2023-01-21T20:08:01.988Z,6.85
2023-01-21T20:10:48.024Z,6.86
2023-01-21T20:13:36.565Z,6.87
2023-01-21T20:16:26.487Z,6.85
2023-01-21T20:19:14.384Z,6.85
2023-01-21T20:22:02.821Z,6.84
2023-01-21T20:24:48.723Z,6.83
2023-01-21T20:27:34.242Z,6.81
2023-01-21T20:30:21.186Z,6.80
2023-01-21T20:33:09.342Z,6.80
2023-01-21T20:35:56.080Z,6.75
2023-01-21T20:38:42.888Z,6.72
2023-01-21T20:41:28.480Z,6.71
2023-01-21T20:44:14.109Z,6.71
2023-01-21T20:46:59.733Z,6.69
2023-01-21T20:49:45.131Z,6.67
2023-01-21T20:52:30.983Z,6.65
2023-01-21T20:55:20.863Z,6.61
2023-01-21T20:58:10.350Z,6.56
2023-01-21T21:00:56.095Z,6.53
2023-01-21T21:03:42.258Z,6.49
2023-01-21T21:06:28.914Z,6.46
2023-01-21T21:09:16.452Z,6.43
2023-01-21T21:12:02.377Z,6.40
2023-01-21T21:14:48.471Z,6.37
2023-01-21T21:17:33.930Z,6.38
2023-01-21T21:20:27.059Z,6.36
2023-01-21T21:23:16.955Z,6.36
2023-01-21T21:26:02.667Z,6.35
2023-01-21T21:28:50.576Z,6.30
2023-01-21T21:31:36.388Z,6.26
2023-01-21T21:34:23.979Z,6.22
2023-01-21T21:37:11.006Z,6.18
2023-01-21T21:39:56.841Z,6.14
2023-01-21T21:43:02.394Z,6.11
2023-01-21T21:46:07.606Z,6.06
2023-01-21T21:48:53.425Z,6.00
2023-01-21T21:51:39.063Z,5.95
2023-01-21T21:54:24.744Z,5.91
2023-01-21T21:57:11.393Z,5.88
2023-01-21T21:59:57.162Z,5.83
2023-01-21T22:02:43.119Z,5.80
2023-01-21T22:05:29.774Z,5.75
2023-01-21T22:08:16.303Z,5.74
2023-01-21T22:11:03.867Z,5.71
2023-01-21T22:13:50.563Z,5.71
2023-01-21T22:16:36.634Z,5.70
2023-01-21T22:19:22.029Z,5.69
2023-01-21T22:22:07.513Z,5.67
2023-01-21T22:24:54.764Z,5.64
2023-01-21T22:27:40.538Z,5.60
2023-01-21T22:30:26.277Z,5.57
2023-01-21T22:33:11.933Z,5.54
2023-01-21T22:35:57.454Z,5.52
2023-01-21T22:38:43.269Z,5.49
2023-01-21T22:41:28.663Z,5.45
2023-01-21T22:44:14.108Z,5.40
2023-01-21T23:00:48.782Z,5.14
2023-01-21T23:03:34.388Z,5.11
2023-01-21T23:11:00.556Z,4.98
2023-01-21T23:13:46.460Z,4.95
2023-01-21T23:21:09.232Z,4.97
2023-01-21T23:23:54.727Z,4.99
2023-01-21T23:31:17.378Z,5.06
2023-01-21T23:34:03.700Z,5.06
2023-01-21T23:41:26.990Z,5.06
2023-01-21T23:44:12.756Z,5.06
2023-01-21T23:56:13.755Z,5.05
2023-01-21T23:58:59.296Z,5.04
